createdAt,value
2018-08-25T00:01:23.958Z,39.65
2018-08-25T00:03:26.232Z,35.65
2018-08-25T00:05:28.470Z,36.77
2018-08-25T00:07:30.754Z,33.55
2018-08-25T00:09:32.994Z,34.50
2018-08-25T00:11:35.227Z,33.25
2018-08-25T00:13:37.530Z,37.03
2018-08-25T00:15:39.984Z,33.25
2018-08-25T00:17:42.280Z,33.35
2018-08-25T00:19:44.520Z,28.62
2018-08-25T00:21:46.778Z,26.68
2018-08-25T00:23:49.022Z,26.35
2018-08-25T00:25:51.282Z,25.82
2018-08-25T00:27:53.536Z,27.52
2018-08-25T00:29:55.780Z,29.60
2018-08-25T00:31:58.050Z,23.62
2018-08-25T00:34:00.300Z,25.45
2018-08-25T00:36:02.559Z,24.52
2018-08-25T00:38:04.844Z,24.57
2018-08-25T00:40:07.084Z,24.82
2018-08-25T00:42:09.326Z,22.93
2018-08-25T00:44:11.596Z,21.40
2018-08-25T00:46:13.835Z,22.37
2018-08-25T00:48:16.129Z,23.27
2018-08-25T00:50:18.376Z,22.40
2018-08-25T00:52:20.606Z,23.27
2018-08-25T00:54:22.922Z,20.35
2018-08-25T00:56:25.138Z,19.42
2018-08-25T00:58:27.382Z,18.07
2018-08-25T01:00:29.652Z,18.57
2018-08-25T01:02:31.915Z,18.98
2018-08-25T01:04:34.176Z,16.93
2018-08-25T01:06:36.448Z,16.20
2018-08-25T01:08:38.684Z,13.25
2018-08-25T01:10:40.962Z,14.65
2018-08-25T01:12:43.200Z,13.43
2018-08-25T01:14:45.475Z,14.03
2018-08-25T01:16:47.760Z,13.08
2018-08-25T01:18:50.006Z,13.03
2018-08-25T01:20:52.275Z,12.20
2018-08-25T01:22:54.516Z,13.03
2018-08-25T01:24:56.801Z,11.43
2018-08-25T01:26:59.122Z,12.40
2018-08-25T01:29:01.368Z,12.43
2018-08-25T01:31:03.602Z,11.08
2018-08-25T01:33:05.882Z,10.95
2018-08-25T01:35:08.134Z,10.40
2018-08-25T01:37:10.441Z,10.00
2018-08-25T01:39:12.686Z,10.80
2018-08-25T01:41:14.951Z,10.13
2018-08-25T01:43:17.206Z,9.85
2018-08-25T01:45:19.442Z,9.45
2018-08-25T01:47:21.724Z,10.13
2018-08-25T01:49:23.960Z,9.35
2018-08-25T01:51:26.255Z,8.25
2018-08-25T01:53:28.501Z,7.87
2018-08-25T01:55:30.717Z,8.30
2018-08-25T01:57:32.980Z,7.75
2018-08-25T01:59:35.228Z,8.48
2018-08-25T02:01:37.507Z,7.20
2018-08-25T02:03:39.742Z,6.22
2018-08-25T02:05:42.014Z,7.15
2018-08-25T02:07:44.287Z,6.60
2018-08-25T02:09:46.529Z,6.53
2018-08-25T02:11:48.767Z,6.35
2018-08-25T02:13:51.084Z,6.67
2018-08-25T02:15:53.303Z,7.17
2018-08-25T02:17:55.529Z,5.97
2018-08-25T02:19:57.827Z,6.47
2018-08-25T02:22:00.103Z,6.05
2018-08-25T02:24:02.365Z,5.55
2018-08-25T02:26:04.641Z,5.37
2018-08-25T02:28:06.942Z,5.42
2018-08-25T02:30:09.185Z,5.12
2018-08-25T02:32:11.435Z,5.70
2018-08-25T02:34:13.699Z,4.65
2018-08-25T02:36:15.924Z,4.85
2018-08-25T02:38:18.165Z,4.15
2018-08-25T02:40:20.423Z,4.90
2018-08-25T02:42:22.657Z,5.10
2018-08-25T02:44:24.917Z,3.60
2018-08-25T02:46:27.167Z,3.40
2018-08-25T02:48:29.437Z,3.83
2018-08-25T02:50:31.730Z,4.10
2018-08-25T02:52:33.971Z,3.95
2018-08-25T02:54:36.255Z,3.30
2018-08-25T02:56:38.488Z,3.83
2018-08-25T02:58:40.731Z,3.33
2018-08-25T03:00:43.026Z,3.95
2018-08-25T03:02:45.271Z,3.62
2018-08-25T03:04:47.502Z,3.20
2018-08-25T03:06:49.779Z,2.67
2018-08-25T03:08:52.077Z,2.87
2018-08-25T03:10:54.301Z,2.80
2018-08-25T03:12:56.549Z,3.00
2018-08-25T03:14:58.816Z,2.90
2018-08-25T03:17:01.090Z,2.87
2018-08-25T03:19:03.337Z,2.60
2018-08-25T03:21:05.612Z,1.80
2018-08-25T03:23:07.863Z,2.30
2018-08-25T03:25:10.119Z,1.70
2018-08-25T03:27:12.351Z,1.55
2018-08-25T03:29:14.595Z,1.70
2018-08-25T03:31:16.836Z,1.85
2018-08-25T03:33:19.104Z,1.70
2018-08-25T03:35:21.359Z,1.62
2018-08-25T03:37:23.601Z,1.55
2018-08-25T03:39:25.876Z,1.70
2018-08-25T03:41:28.099Z,1.70
2018-08-25T03:43:30.393Z,1.50
2018-08-25T03:45:32.811Z,1.60
2018-08-25T03:47:35.037Z,1.50
2018-08-25T03:49:37.277Z,1.60
2018-08-25T03:51:39.537Z,1.30
2018-08-25T03:53:41.803Z,1.50
2018-08-25T03:55:44.069Z,1.35
2018-08-25T03:57:46.386Z,1.62
2018-08-25T03:59:48.671Z,1.22
2018-08-25T04:01:50.903Z,1.55
2018-08-25T04:03:53.137Z,1.27
2018-08-25T04:05:55.418Z,1.30
2018-08-25T04:07:57.665Z,1.40
2018-08-25T04:09:59.885Z,1.10
2018-08-25T04:12:02.157Z,1.87
2018-08-25T04:14:04.397Z,1.62
2018-08-25T04:16:06.665Z,1.60
2018-08-25T04:18:08.911Z,1.55
2018-08-25T04:20:11.198Z,1.20
2018-08-25T04:22:13.497Z,1.35
2018-08-25T04:24:15.739Z,1.10
2018-08-25T04:26:17.971Z,1.20
2018-08-25T04:28:20.250Z,1.10
2018-08-25T04:30:22.495Z,1.45
2018-08-25T04:32:24.763Z,1.37
2018-08-25T04:34:27.029Z,1.32
2018-08-25T04:36:29.261Z,1.32
2018-08-25T04:38:31.535Z,1.15
2018-08-25T04:40:33.794Z,1.30
2018-08-25T04:42:36.027Z,1.30
2018-08-25T04:44:38.295Z,1.30
2018-08-25T04:46:40.535Z,1.60
2018-08-25T04:48:42.826Z,1.30
2018-08-25T04:50:45.061Z,1.62
2018-08-25T04:52:47.331Z,1.20
2018-08-25T04:54:49.578Z,1.22
2018-08-25T04:56:51.817Z,1.22
2018-08-25T04:58:54.089Z,1.32
2018-08-25T05:00:56.361Z,1.37
2018-08-25T05:02:58.599Z,1.32
2018-08-25T05:05:00.837Z,1.30
2018-08-25T05:07:03.115Z,1.30
2018-08-25T05:09:05.348Z,1.40
2018-08-25T05:11:07.608Z,1.42
2018-08-25T05:13:09.840Z,1.25
2018-08-25T05:15:12.103Z,1.42
2018-08-25T05:17:14.342Z,1.27
2018-08-25T05:19:16.568Z,1.20
2018-08-25T05:21:18.845Z,1.07
2018-08-25T05:23:21.124Z,1.30
2018-08-25T05:25:23.348Z,1.40
2018-08-25T05:27:25.670Z,5.97
2018-08-25T05:29:27.940Z,190.18
2018-08-25T05:31:30.194Z,26.15
2018-08-25T05:33:32.647Z,30.82
2018-08-25T05:35:34.934Z,44.05
2018-08-25T05:37:37.181Z,63.73
2018-08-25T05:39:39.456Z,44.25
2018-08-25T05:41:41.714Z,12.78
2018-08-25T05:43:43.939Z,7.30
2018-08-25T05:45:46.211Z,5.30
2018-08-25T05:47:48.462Z,48.87
2018-08-25T05:49:50.693Z,42.75
2018-08-25T05:51:52.976Z,23.05
2018-08-25T05:53:55.256Z,9.50
2018-08-25T05:55:57.523Z,4.22
2018-08-25T05:57:59.811Z,22.30
2018-08-25T06:00:02.053Z,21.05
2018-08-25T06:02:04.353Z,28.17
2018-08-25T06:04:06.615Z,12.23
2018-08-25T06:06:08.891Z,5.47
2018-08-25T06:08:11.165Z,15.50
2018-08-25T06:10:13.435Z,36.98
2018-08-25T06:12:15.667Z,37.48
2018-08-25T06:14:17.965Z,14.33
2018-08-25T06:16:20.210Z,5.20
2018-08-25T06:18:22.477Z,8.60
2018-08-25T06:20:24.719Z,46.23
2018-08-25T06:22:27.003Z,56.60
2018-08-25T06:24:29.303Z,39.08
2018-08-25T06:26:31.603Z,39.20
2018-08-25T06:28:33.898Z,13.08
2018-08-25T06:30:36.133Z,7.47
2018-08-25T06:32:38.435Z,5.33
2018-08-25T06:34:40.670Z,21.40
2018-08-25T06:36:42.966Z,279.13
2018-08-25T06:38:45.213Z,199.57
2018-08-25T06:40:47.496Z,110.63
2018-08-25T06:42:49.792Z,19.73
2018-08-25T06:44:52.037Z,11.68
2018-08-25T06:46:54.324Z,4.92
2018-08-25T06:48:56.584Z,3.27
2018-08-25T06:50:58.870Z,3.35
2018-08-25T06:53:01.136Z,23.00
2018-08-25T06:55:03.385Z,157.80
2018-08-25T06:57:05.683Z,58.02
2018-08-25T06:59:07.948Z,17.42
2018-08-25T07:01:10.204Z,8.58
2018-08-25T07:03:12.492Z,4.72
2018-08-25T07:05:14.720Z,3.65
2018-08-25T07:07:16.982Z,28.55
2018-08-25T07:09:19.275Z,61.73
2018-08-25T07:11:21.518Z,42.83
2018-08-25T07:13:23.951Z,13.03
2018-08-25T07:15:26.196Z,5.42
2018-08-25T07:17:28.473Z,3.30
2018-08-25T07:19:30.753Z,17.07
2018-08-25T07:21:32.988Z,52.33
2018-08-25T07:23:35.277Z,41.20
2018-08-25T07:25:37.525Z,27.35
2018-08-25T07:27:39.796Z,9.93
2018-08-25T07:29:42.082Z,5.37
2018-08-25T07:31:44.356Z,44.58
2018-08-25T07:33:46.655Z,37.33
2018-08-25T07:35:48.903Z,22.02
2018-08-25T07:37:51.152Z,9.55
2018-08-25T07:39:53.438Z,47.08
2018-08-25T07:41:55.702Z,55.43
2018-08-25T07:43:57.980Z,14.83
2018-08-25T07:46:00.217Z,7.20
2018-08-25T07:48:02.491Z,7.05
2018-08-25T07:50:04.745Z,2.92
2018-08-25T07:52:07.000Z,2.47
2018-08-25T07:54:09.268Z,1.77
2018-08-25T07:56:11.508Z,2.10
2018-08-25T07:58:13.784Z,1.50
2018-08-25T08:00:16.074Z,1.42
2018-08-25T08:02:18.302Z,48.00
2018-08-25T08:04:20.602Z,110.22
2018-08-25T08:06:22.892Z,111.47
2018-08-25T08:08:25.153Z,45.78
2018-08-25T08:10:27.436Z,27.42
2018-08-25T08:12:29.731Z,16.32
2018-08-25T08:14:31.971Z,13.15
2018-08-25T08:16:34.238Z,80.25
2018-08-25T08:18:36.542Z,51.55
2018-08-25T08:20:38.774Z,33.65
2018-08-25T08:22:41.020Z,16.17
2018-08-25T08:24:43.330Z,9.35
2018-08-25T08:26:45.561Z,8.60
2018-08-25T08:28:47.804Z,5.95
2018-08-25T08:30:50.091Z,437.62
2018-08-25T08:32:52.383Z,143.47
2018-08-25T08:34:54.764Z,37.65
2018-08-25T08:36:57.011Z,16.27
2018-08-25T08:38:59.251Z,11.33
2018-08-25T08:41:01.533Z,7.55
2018-08-25T08:43:03.833Z,4.05
2018-08-25T08:45:06.046Z,2.45
2018-08-25T08:47:08.297Z,170.77
2018-08-25T08:49:10.565Z,180.60
2018-08-25T08:51:12.831Z,45.10
2018-08-25T08:53:15.113Z,24.25
2018-08-25T08:55:17.359Z,15.28
2018-08-25T08:57:19.653Z,13.68
2018-08-25T08:59:21.925Z,6.67
2018-08-25T09:01:24.231Z,5.30
2018-08-25T09:03:26.497Z,3.85
2018-08-25T09:05:29.309Z,31.60
2018-08-25T09:07:31.557Z,54.23
2018-08-25T09:09:33.801Z,23.60
2018-08-25T09:11:36.199Z,9.03
2018-08-25T09:13:38.323Z,5.67
2018-08-25T09:15:40.616Z,3.27
2018-08-25T09:17:42.879Z,2.12
2018-08-25T09:19:45.113Z,2.20
2018-08-25T09:21:47.396Z,2.08
2018-08-25T09:23:49.641Z,74.62
2018-08-25T09:25:51.921Z,143.55
2018-08-25T09:27:54.170Z,243.42
2018-08-25T09:29:56.437Z,37.55
2018-08-25T09:31:58.667Z,12.73
2018-08-25T09:34:00.959Z,9.48
2018-08-25T09:36:03.272Z,5.83
2018-08-25T09:38:05.480Z,4.12
2018-08-25T09:40:07.769Z,3.80
2018-08-25T09:42:10.049Z,2.80
2018-08-25T09:44:12.341Z,2.75
2018-08-25T09:46:14.616Z,4.40
2018-08-25T09:48:16.897Z,2.33
2018-08-25T09:50:19.128Z,2.00
2018-08-25T09:52:21.361Z,2.00
2018-08-25T09:54:23.659Z,1.80
2018-08-25T09:56:25.952Z,1.72
2018-08-25T09:58:28.177Z,1.42
2018-08-25T10:00:30.432Z,196.87
2018-08-25T10:02:32.676Z,64.72
2018-08-25T10:04:34.938Z,44.60
2018-08-25T10:06:37.225Z,26.35
2018-08-25T10:08:39.467Z,13.00
2018-08-25T10:10:41.718Z,10.35
2018-08-25T10:12:44.016Z,26.55
2018-08-25T10:14:46.246Z,28.32
2018-08-25T10:16:48.569Z,22.25
2018-08-25T10:18:50.785Z,7.85
2018-08-25T10:20:53.041Z,5.60
2018-08-25T10:22:55.282Z,155.12
2018-08-25T10:24:57.577Z,155.22
2018-08-25T10:26:59.868Z,55.65
2018-08-25T10:29:02.181Z,46.25
2018-08-25T10:31:04.403Z,24.32
2018-08-25T10:33:06.699Z,12.35
2018-08-25T10:35:08.960Z,7.12
2018-08-25T10:37:11.220Z,4.50
2018-08-25T10:39:13.485Z,2.77
2018-08-25T10:41:15.715Z,2.92
2018-08-25T10:43:17.989Z,1.70
2018-08-25T10:45:20.223Z,1.90
2018-08-25T10:47:22.507Z,1.30
2018-08-25T10:49:24.755Z,1.30
2018-08-25T10:51:26.992Z,1.25
2018-08-25T10:53:29.262Z,1.20
2018-08-25T10:55:31.495Z,1.30
2018-08-25T10:57:33.774Z,0.93
2018-08-25T10:59:36.059Z,0.72
2018-08-25T11:01:38.348Z,0.75
2018-08-25T11:03:40.641Z,0.60
2018-08-25T11:05:42.906Z,0.40
2018-08-25T11:07:45.264Z,99.42
2018-08-25T11:09:47.533Z,150.20
2018-08-25T11:11:49.790Z,85.35
2018-08-25T11:13:52.069Z,98.97
2018-08-25T11:15:54.318Z,82.60
2018-08-25T11:17:56.560Z,82.72
2018-08-25T11:19:58.871Z,77.82
2018-08-25T11:22:01.169Z,71.92
2018-08-25T11:24:03.418Z,73.22
2018-08-25T11:26:05.669Z,65.78
2018-08-25T11:28:07.914Z,53.92
2018-08-25T11:30:10.209Z,47.85
2018-08-25T11:32:12.446Z,44.60
2018-08-25T11:34:14.754Z,46.33
2018-08-25T11:36:17.000Z,35.85
2018-08-25T11:38:19.238Z,45.65
2018-08-25T11:40:21.522Z,29.95
2018-08-25T11:42:23.758Z,22.67
2018-08-25T11:44:26.069Z,26.48
2018-08-25T11:46:28.318Z,26.25
2018-08-25T11:48:30.640Z,24.75
2018-08-25T11:50:32.870Z,21.33
2018-08-25T11:52:35.110Z,23.05
2018-08-25T11:54:37.392Z,19.05
2018-08-25T11:56:39.675Z,25.20
2018-08-25T11:58:41.982Z,14.28
2018-08-25T12:00:44.219Z,11.28
2018-08-25T12:02:46.478Z,8.10
2018-08-25T12:04:48.754Z,85.85
2018-08-25T12:06:51.012Z,60.90
2018-08-25T12:08:53.264Z,49.27
2018-08-25T12:10:55.536Z,51.37
2018-08-25T12:12:57.856Z,39.67
2018-08-25T12:15:00.138Z,23.73
2018-08-25T12:17:02.388Z,15.10
2018-08-25T12:19:04.660Z,10.28
2018-08-25T12:21:07.828Z,11.50
2018-08-25T12:23:10.108Z,12.65
2018-08-25T12:25:12.343Z,28.50
2018-08-25T12:27:14.632Z,83.95
2018-08-25T12:29:16.945Z,40.35
2018-08-25T12:31:19.236Z,41.45
2018-08-25T12:33:21.566Z,28.25
2018-08-25T12:35:23.765Z,23.83
2018-08-25T12:37:26.036Z,23.10
2018-08-25T12:39:28.315Z,17.00
2018-08-25T12:41:30.528Z,9.78
2018-08-25T12:43:32.895Z,6.05
2018-08-25T12:45:35.052Z,6.30
2018-08-25T12:47:37.322Z,6.30
2018-08-25T12:49:40.014Z,4.40
2018-08-25T12:51:42.256Z,2.87
2018-08-25T12:53:44.462Z,7.62
2018-08-25T12:55:46.749Z,248.95
2018-08-25T12:57:49.430Z,86.67
2018-08-25T12:59:51.712Z,42.27
2018-08-25T13:01:54.005Z,32.80
2018-08-25T13:03:56.252Z,53.25
2018-08-25T13:05:58.545Z,65.60
2018-08-25T13:08:00.823Z,30.62
2018-08-25T13:10:03.130Z,19.27
2018-08-25T13:12:05.388Z,16.93
2018-08-25T13:14:07.668Z,12.15
2018-08-25T13:16:09.923Z,12.33
2018-08-25T13:18:12.202Z,8.38
2018-08-25T13:20:14.455Z,6.45
2018-08-25T13:22:16.754Z,4.78
2018-08-25T13:24:19.052Z,3.08
2018-08-25T13:26:21.284Z,3.62
2018-08-25T13:28:23.508Z,3.35
2018-08-25T13:30:25.774Z,3.08
2018-08-25T13:32:28.049Z,2.37
2018-08-25T13:34:30.293Z,1.67
2018-08-25T13:36:32.565Z,2.58
2018-08-25T13:38:34.858Z,2.17
2018-08-25T13:40:37.133Z,2.17
2018-08-25T13:42:39.900Z,1.47
2018-08-25T13:44:42.111Z,1.95
2018-08-25T13:46:44.361Z,1.25
2018-08-25T13:48:46.649Z,3.87
2018-08-25T13:50:48.895Z,28.92
2018-08-25T13:52:51.212Z,16.70
2018-08-25T13:54:53.436Z,64.40
2018-08-25T13:56:55.683Z,37.15
2018-08-25T13:58:57.968Z,27.82
2018-08-25T14:01:00.232Z,24.32
2018-08-25T14:03:02.483Z,19.55
2018-08-25T14:05:04.757Z,12.78
2018-08-25T14:07:07.013Z,8.70
2018-08-25T14:09:09.256Z,5.75
2018-08-25T14:11:11.525Z,7.53
2018-08-25T14:13:13.766Z,9.25
2018-08-25T14:15:16.060Z,6.78
2018-08-25T14:17:18.320Z,7.58
2018-08-25T14:19:20.769Z,7.50
2018-08-25T14:21:23.018Z,5.85
2018-08-25T14:23:25.292Z,4.33
2018-08-25T14:25:27.531Z,3.90
2018-08-25T14:27:29.824Z,4.67
2018-08-25T14:29:32.072Z,4.20
2018-08-25T14:31:34.338Z,3.30
2018-08-25T14:33:36.602Z,26.97
2018-08-25T14:35:38.895Z,41.35
2018-08-25T14:37:41.132Z,202.35
2018-08-25T14:39:43.436Z,97.25
2018-08-25T14:41:45.743Z,61.60
2018-08-25T14:43:47.918Z,43.83
2018-08-25T14:45:50.208Z,37.63
2018-08-25T14:47:52.458Z,39.88
2018-08-25T14:49:54.760Z,31.48
2018-08-25T14:51:57.037Z,23.38
2018-08-25T14:53:59.282Z,21.65
2018-08-25T14:56:01.561Z,40.35
2018-08-25T14:58:03.805Z,66.55
2018-08-25T15:00:06.092Z,69.07
2018-08-25T15:02:08.338Z,87.90
2018-08-25T15:04:10.633Z,107.22
2018-08-25T15:06:12.940Z,125.62
2018-08-25T15:08:15.193Z,95.92
2018-08-25T15:10:17.437Z,72.12
2018-08-25T15:12:19.740Z,71.30
2018-08-25T15:14:21.986Z,51.77
2018-08-25T15:16:24.283Z,55.73
2018-08-25T15:18:26.581Z,61.53
2018-08-25T15:20:28.836Z,100.92
2018-08-25T15:22:31.088Z,168.70
2018-08-25T15:24:33.391Z,263.95
2018-08-25T15:26:35.640Z,144.93
2018-08-25T15:28:37.903Z,222.37
2018-08-25T15:30:40.191Z,82.45
2018-08-25T15:32:42.476Z,99.37
2018-08-25T15:34:44.743Z,46.77
2018-08-25T15:36:47.067Z,30.27
2018-08-25T15:38:49.801Z,10.38
2018-08-25T15:40:52.065Z,12.30
2018-08-25T15:42:54.354Z,5.10
2018-08-25T15:44:56.625Z,2.27
2018-08-25T15:46:58.857Z,3.58
2018-08-25T15:49:01.160Z,2.90
2018-08-25T15:51:03.395Z,2.27
2018-08-25T15:53:05.649Z,121.22
2018-08-25T15:55:07.944Z,101.62
2018-08-25T15:57:10.210Z,60.05
2018-08-25T15:59:12.457Z,197.45
2018-08-25T16:01:14.715Z,302.13
2018-08-25T16:03:16.990Z,85.83
2018-08-25T16:05:19.272Z,27.05
2018-08-25T16:07:21.521Z,14.78
2018-08-25T16:09:23.796Z,9.08
2018-08-25T16:11:26.062Z,6.25
2018-08-25T16:13:28.319Z,2.80
2018-08-25T16:15:30.594Z,3.12
2018-08-25T16:17:32.845Z,1.70
2018-08-25T16:19:35.140Z,1.77
2018-08-25T16:21:37.355Z,1.50
2018-08-25T16:23:39.643Z,1.25
2018-08-25T16:25:41.880Z,263.82
2018-08-25T16:27:44.125Z,454.92
2018-08-25T16:29:46.423Z,86.55
2018-08-25T16:31:48.692Z,53.63
2018-08-25T16:33:50.973Z,29.05
2018-08-25T16:35:53.268Z,20.75
2018-08-25T16:37:55.515Z,14.68
2018-08-25T16:39:57.803Z,10.23
2018-08-25T16:42:00.063Z,5.30
2018-08-25T16:44:02.333Z,4.67
2018-08-25T16:46:04.556Z,4.58
2018-08-25T16:48:06.843Z,4.40
2018-08-25T16:50:09.083Z,8.30
2018-08-25T16:52:11.369Z,13.30
2018-08-25T16:54:13.616Z,9.45
2018-08-25T16:56:15.849Z,7.12
2018-08-25T16:58:18.157Z,4.78
2018-08-25T17:00:20.423Z,4.28
2018-08-25T17:02:22.678Z,3.27
2018-08-25T17:04:24.914Z,3.50
2018-08-25T17:06:27.189Z,2.00
2018-08-25T17:08:29.435Z,1.40
2018-08-25T17:10:31.697Z,1.50
2018-08-25T17:12:33.940Z,1.30
2018-08-25T17:14:36.203Z,1.15
2018-08-25T17:16:38.484Z,0.82
2018-08-25T17:18:40.728Z,1.60
2018-08-25T17:20:43.004Z,1.20
2018-08-25T17:22:45.256Z,1.00
2018-08-25T17:24:47.466Z,0.70
2018-08-25T17:26:49.765Z,0.80
2018-08-25T17:28:52.034Z,0.85
2018-08-25T17:30:54.281Z,0.85
2018-08-25T17:32:56.558Z,0.80
2018-08-25T17:34:58.808Z,12.10
2018-08-25T17:37:01.034Z,621.70
2018-08-25T17:39:03.327Z,146.77
2018-08-25T17:41:05.598Z,38.23
2018-08-25T17:43:07.870Z,18.52
2018-08-25T17:45:10.191Z,11.20
2018-08-25T17:47:12.396Z,9.68
2018-08-25T17:49:14.646Z,7.45
2018-08-25T17:51:16.875Z,4.65
2018-08-25T17:53:19.148Z,3.67
2018-08-25T17:55:21.412Z,2.20
2018-08-25T17:57:23.791Z,1.20
2018-08-25T17:59:25.959Z,1.60
2018-08-25T18:01:28.229Z,1.05
2018-08-25T18:03:30.471Z,0.80
2018-08-25T18:05:32.785Z,0.90
2018-08-25T18:07:35.036Z,50.80
2018-08-25T18:09:37.302Z,114.17
2018-08-25T18:11:39.586Z,168.82
2018-08-25T18:13:41.887Z,130.37
2018-08-25T18:15:44.140Z,136.95
2018-08-25T18:17:46.452Z,128.18
2018-08-25T18:19:48.716Z,111.90
2018-08-25T18:21:51.034Z,109.22
2018-08-25T18:23:53.330Z,102.87
2018-08-25T18:25:55.593Z,181.63
2018-08-25T18:27:57.894Z,330.75
2018-08-25T18:30:00.170Z,586.30
2018-08-25T18:32:02.465Z,566.25
2018-08-25T18:34:04.705Z,530.13
2018-08-25T18:36:06.950Z,517.35
2018-08-25T18:38:09.244Z,496.98
2018-08-25T18:40:11.525Z,468.02
2018-08-25T18:42:13.876Z,447.60
2018-08-25T18:44:16.107Z,400.92
2018-08-25T18:46:18.334Z,386.70
2018-08-25T18:48:20.629Z,385.27
2018-08-25T18:50:22.880Z,417.20
2018-08-25T18:52:25.191Z,477.05
2018-08-25T18:54:27.567Z,511.58
2018-08-25T18:56:30.128Z,564.23
2018-08-25T18:58:32.408Z,582.85
2018-08-25T19:00:34.692Z,538.72
2018-08-25T19:02:36.980Z,532.02
2018-08-25T19:04:39.236Z,510.35
2018-08-25T19:06:41.584Z,479.15
2018-08-25T19:08:43.856Z,465.60
2018-08-25T19:10:46.070Z,450.50
2018-08-25T19:12:48.390Z,443.23
2018-08-25T19:14:50.637Z,418.85
2018-08-25T19:16:52.938Z,393.58
2018-08-25T19:18:55.212Z,390.48
2018-08-25T19:20:57.472Z,369.85
2018-08-25T19:22:59.747Z,381.60
2018-08-25T19:25:02.052Z,350.57
2018-08-25T19:27:04.360Z,379.30
2018-08-25T19:29:06.640Z,460.82
2018-08-25T19:31:08.910Z,563.48
2018-08-25T19:33:11.173Z,605.67
2018-08-25T19:35:13.410Z,614.25
2018-08-25T19:37:15.700Z,467.25
2018-08-25T19:39:18.009Z,405.20
2018-08-25T19:41:20.353Z,516.12
2018-08-25T19:43:22.562Z,424.75
2018-08-25T19:45:24.864Z,391.35
2018-08-25T19:47:27.100Z,400.00
2018-08-25T19:49:29.396Z,443.13
2018-08-25T19:51:31.698Z,486.85
2018-08-25T19:53:33.976Z,363.95
2018-08-25T19:55:36.253Z,351.10
2018-08-25T19:57:38.564Z,453.40
2018-08-25T19:59:40.885Z,475.12
2018-08-25T20:01:43.116Z,420.27
2018-08-25T20:03:45.366Z,390.35
2018-08-25T20:05:47.724Z,419.97
2018-08-25T20:07:49.917Z,414.78
2018-08-25T20:09:52.197Z,554.67
2018-08-25T20:11:54.488Z,607.67
2018-08-25T20:13:56.812Z,577.95
2018-08-25T20:15:59.068Z,593.17
2018-08-25T20:18:01.359Z,571.70
2018-08-25T20:20:03.645Z,544.30
2018-08-25T20:22:05.921Z,534.22
2018-08-25T20:24:08.199Z,458.42
2018-08-25T20:26:10.511Z,518.85
2018-08-25T20:28:12.793Z,581.25
2018-08-25T20:30:15.153Z,577.25
2018-08-25T20:32:17.349Z,647.85
2018-08-25T20:34:19.664Z,612.12
2018-08-25T20:36:21.972Z,690.05
2018-08-25T20:38:24.239Z,688.15
2018-08-25T20:40:26.539Z,684.03
2018-08-25T20:42:28.810Z,647.33
2018-08-25T20:44:31.071Z,637.10
2018-08-25T20:46:33.364Z,615.88
2018-08-25T20:48:35.630Z,603.90
2018-08-25T20:50:37.906Z,581.27
2018-08-25T20:52:40.186Z,573.08
2018-08-25T20:54:42.435Z,551.17
2018-08-25T20:56:44.725Z,539.35
2018-08-25T20:58:47.029Z,534.98
2018-08-25T21:00:49.308Z,541.33
2018-08-25T21:02:51.541Z,532.15
2018-08-25T21:04:53.824Z,523.55
2018-08-25T21:06:56.088Z,524.25
2018-08-25T21:08:58.470Z,506.07
2018-08-25T21:11:00.720Z,604.20
2018-08-25T21:13:02.973Z,710.58
2018-08-25T21:15:05.529Z,700.02
2018-08-25T21:17:08.062Z,664.90
2018-08-25T21:19:10.365Z,636.60
2018-08-25T21:21:12.646Z,597.67
2018-08-25T21:23:14.891Z,619.73
2018-08-25T21:25:17.995Z,691.62
2018-08-25T21:27:20.457Z,756.13
2018-08-25T21:29:22.748Z,702.33
2018-08-25T21:31:24.994Z,711.33
2018-08-25T21:33:27.245Z,702.88
2018-08-25T21:35:29.565Z,669.50
2018-08-25T21:37:31.815Z,665.38
2018-08-25T21:39:34.105Z,649.62
2018-08-25T21:41:36.417Z,641.58
2018-08-25T21:43:38.716Z,644.77
2018-08-25T21:45:41.043Z,625.10
2018-08-25T21:47:43.327Z,622.70
2018-08-25T21:49:45.597Z,606.63
2018-08-25T21:51:47.913Z,617.35
2018-08-25T21:53:50.160Z,595.88
2018-08-25T21:55:52.450Z,596.75
2018-08-25T21:57:54.761Z,595.50
2018-08-25T21:59:57.034Z,589.75
2018-08-25T22:01:59.318Z,593.37
2018-08-25T22:04:01.596Z,587.60
2018-08-25T22:06:03.860Z,584.27
2018-08-25T22:08:06.163Z,598.47
2018-08-25T22:10:08.470Z,702.30
2018-08-25T22:12:10.734Z,698.25
2018-08-25T22:14:13.033Z,696.42
2018-08-25T22:16:15.288Z,699.50
2018-08-25T22:18:17.602Z,682.20
2018-08-25T22:20:19.869Z,667.70
2018-08-25T22:22:22.172Z,655.42
2018-08-25T22:24:24.423Z,657.73
2018-08-25T22:26:26.745Z,666.90
2018-08-25T22:28:29.048Z,650.17
2018-08-25T22:30:31.350Z,645.65
2018-08-25T22:32:33.655Z,618.25
2018-08-25T22:34:35.910Z,623.25
2018-08-25T22:36:38.179Z,618.20
2018-08-25T22:38:40.495Z,605.22
2018-08-25T22:40:42.764Z,609.08
2018-08-25T22:42:45.012Z,601.45
2018-08-25T22:44:47.317Z,612.65
2018-08-25T22:46:49.633Z,584.50
2018-08-25T22:48:51.924Z,586.35
2018-08-25T22:50:54.177Z,586.17
2018-08-25T22:52:56.523Z,585.65
2018-08-25T22:54:58.855Z,579.15
2018-08-25T22:57:01.160Z,561.52
2018-08-25T22:59:03.430Z,549.75
2018-08-25T23:01:05.713Z,552.78
2018-08-25T23:03:08.025Z,529.17
2018-08-25T23:05:10.288Z,551.75
2018-08-25T23:07:12.567Z,539.95
2018-08-25T23:09:14.854Z,536.80
2018-08-25T23:11:17.127Z,521.00
2018-08-25T23:13:19.414Z,529.30
2018-08-25T23:15:21.704Z,511.40
2018-08-25T23:17:24.089Z,549.30
2018-08-25T23:19:26.290Z,500.57
2018-08-25T23:21:28.582Z,502.20
2018-08-25T23:23:30.889Z,516.17
2018-08-25T23:25:33.181Z,498.20
2018-08-25T23:27:35.446Z,529.58
2018-08-25T23:29:37.732Z,512.15
2018-08-25T23:31:40.033Z,481.15
2018-08-25T23:33:42.290Z,486.60
2018-08-25T23:35:44.660Z,509.90
2018-08-25T23:37:46.929Z,513.87
2018-08-25T23:39:49.208Z,503.58
2018-08-25T23:41:51.508Z,457.35
2018-08-25T23:43:53.784Z,477.52
2018-08-25T23:45:56.089Z,487.75
2018-08-25T23:47:58.437Z,501.18
2018-08-25T23:50:00.669Z,443.67
2018-08-25T23:52:02.955Z,478.82
2018-08-25T23:54:05.223Z,475.80
2018-08-25T23:56:07.519Z,488.93
2018-08-25T23:58:09.770Z,444.17
